Decoded Metar for YPTN (KATHERINE/TINDAL in AUSTRALIA) (IATA:N/A) | Meteo·Mobile Aviation Weather
aviador You're here:

YPTN Decoded Metar

KATHERINE/TINDAL in AUSTRALIA
Report Time2018-09-23 14:00:00
UTC Time2018-09-23 14:29:52
Flight Rules vfr VFR
Wind090° at 05 kt
W.Decomp.*RWY 14: 3.0 kt HW 4 kt LCW
W.Rank090° ranks 7
Current wind is below 090° avg. (7.9)
Visibility9999 m
Phenomena:N/A
Clouds:N/A
Expected CloudBase > 6,000 ft AGL from Temp-Dew spread
CeilingNone
Temp23°C (ISA +9)
Dew Point08°C (38% RH)
AAT20.7°C
QNH1014 hPa
Density Alt1,483 ft
Elevation358 ft
Report Wrong Elevation
Raw Report
METAR YPTN 231400Z AUTO 09005KT 9999 // NCD 23/08 Q1014=

Extra information for YPTN:More info

Metar Taf Metar & Taf Last 4 Metars F.Rules Stats Wind Profile Meteogram Temp Stats Airport Information Weather charts Add Link Nearby VenuesMetar ALERT Operation Metar Decoded Social comments